Aktualne dane pomiarowe

Uwaga, wersja testowa! Automatyczne pobieranie danych za pomocą narzędzi lub skryptów to umożliwiających jest zabronione.

Dane meteo z obszaru Polski uzyskane na podstawie depesz SYNOP pobieranych co godzinę z NWS. Najedź myszką na symbol przedstawiony w tabeli, aby uzyskać informacje co do jego znaczenia. Prosimy pamiętać, że to testowa wersja strony, która jeszcze nie jest ukończona. Stworzono również jest krótki FAQ dotyczący korzystania z tej podstrony Anomalie temperatury w chwili obecnej odniesione są do okresu referencyjnego 1951-2016. Okres ten będzie później zmieniony na 1981-2010. Kliknij ikonę aby pobrać plik CSV. Kliknij ikonę aby wygenerować mapę synoptyczną dla danego terminu.

Wybierz Datę:    

        

Wieluń (12455)

Dane terminowe dla wybranej stacji. Kliknij datę, aby otrzymać dane z tego terminu dla wszystkich stacji.

TemperaturaZachmurzenieWiatrCiśnienieOpadyPogoda
 Data t td wb tx tn tg rh  Nt Nl Cl Cm Ch ws wd g1 g2 wx mslp ppp ch 24h 12h t ww ww w1 w2  
2019-07-07 23:00:00 12.1 6.8 8.9--- 7045.0wx-wx3wx--31011.6 987.8 0.8---------
2019-07-07 22:00:00 13.2 6.5 9.3--- 6450.0wxwxwxwx2wx--21011.2 987.5 1.1---------
2019-07-07 21:00:00 14.6 6.9 10.1--- 6045.0wxwxwx2wx--21010.7 987.1 1.0---------
2019-07-07 20:00:00 15.2 7.0 10.5--- 5835.0wxwxwx2wx--21010.5 987.0 1.6---------
2019-07-07 19:00:00 15.8 6.2 10.4--- 5350.0wxwxwxwx3wx---1009.9 986.4 1.4---------
2019-07-07 18:00:00 16.5 4.2 10.0 20.0 11.0- 4445.0wxwxwxwx3wx---1009.5 986.1 1.2---------
2019-07-07 17:00:00 17.5 4.8 10.7--- 4340.0wxwxwxwx4wx---1008.7 985.4 0.3---------
2019-07-07 16:00:00 17.9 4.1 10.6--- 4035.0wxwxwxwxwx5wx11--1008.3 985.0 -0.2---------
2019-07-07 15:00:00 18.7 6.2 11.8--- 4435.0wxwxwxwxwx5wx111151008.1 984.9 -0.3---------
2019-07-07 14:00:00 18.7 5.9 11.7--- 4330.0wxwxwxwxwx5wx-1051008.3 985.1 0.0---------
2019-07-07 13:00:00 18.8 6.9 12.1--- 4630.0wxwxwxwx4wx---1008.4 985.2 -0.1---------
2019-07-07 12:00:00 19.0 8.0 12.7--- 4935.0wxwxwxwx6wx-1161008.4 985.2 0.2- 3.06wx-w1--
2019-07-07 11:00:00 17.4 9.3 12.6--- 5926.0wxwxwxwx4wx9--1008.4 985.1 0.3---------
2019-07-07 10:00:00 15.5 10.7 12.4--- 7323.0wxwxwxwx5wx--51008.8 985.3 0.5---------
2019-07-07 09:00:00 13.8 11.0 11.9--- 8321.0wxwxwxwxwx4wx--41008.6 985.0 0.7---wx-w1--
2019-07-07 08:00:00 11.3 10.4 10.6--- 947.0wxwxwx3wx--31008.6 984.8 1.3---wx-w1w2--
2019-07-07 07:00:00 11.4 10.0 10.4--- 9110.0wxwxwx4wx--41008.6 984.8 1.4---wx-w1--
2019-07-07 06:00:00 13.6 12.2 12.6 25.5 13.6 14 9123.0wxwxwx3wx--31007.9 984.3 1.6 1.2 1.012wx-w1- 3.8
2019-07-07 05:00:00 15.4 14.3 14.6--- 938.0wxwxwx2wx--21006.9 983.5 0.8---wx---
2019-07-07 04:00:00 14.9 14.1 14.3--- 957.0wxwxwx2wx--21006.9 983.4 0.3---wx---
2019-07-07 03:00:00 14.4 13.3 13.6--- 936.0wx-wx2wx--21006.2 982.7 -0.9---wx-w1--
2019-07-07 02:00:00 15.1 14.0 14.3--- 937.0wx-wx1wx--11006.1 982.7 -1.1---wx---
2019-07-07 01:00:00 15.4 13.9 14.3--- 919.0wxwxwxwx0----1006.5 983.1 -0.1---wx-w1--
2019-07-07 00:00:00 16.2 13.9 14.6--- 8625.0wxwxwxwx1wx-1011007.0 983.6 0.8- 0.96wx---
2019-07-06 23:00:00 17.1 12.8 14.3--- 7611.0wxwxwx2wx--21007.1 983.8 1.1---wx-w1--
2019-07-06 22:00:00 18.5 11.8 14.3--- 6535.0wx-wx1wx--11006.4 983.2 1.6---wx---
2019-07-06 21:00:00 19.1 11.6 14.4--- 6240.0wx-wx3wx-1031005.9 982.8 0.8---------
2019-07-06 20:00:00 19.8 11.3 14.6--- 5835.0wx-wx5wx-1051005.8 982.7 0.3---------
2019-07-06 19:00:00 24.3 7.9 15.0--- 3545.0wx-wx3wx--31004.3 981.6 -1.1---------
2019-07-06 18:00:00 25.5 9.7 16.3 27.5 17.0- 3735.0wx-wx1wx-911004.6 982.0 -1.2- 0.012------
2019-07-06 17:00:00 26.7 9.1 16.5--- 3340.0wxwxwxwx3wx--31004.9 982.4 -1.4---------
2019-07-06 16:00:00 26.4 8.8 16.2--- 3335.0wxwxwxwx3wx--31005.2 982.7 -1.8---------
2019-07-06 15:00:00 26.5 9.4 16.5--- 3440.0wxwxwxwx2wx-921005.8 983.2 -1.9---------
2019-07-06 14:00:00 26.8 9.2 16.6--- 3330.0wxwxwxwxwx4wx-941006.3 983.8 -2.0---------
2019-07-06 13:00:00 25.3 8.7 15.7--- 3535.0wxwxwxwxwx4wx9941007.2 984.5 -2.1---------
2019-07-06 12:00:00 24.4 9.2 15.6--- 3835.0wxwxwxwxwx4wx--41007.9 985.1 -2.0- 0.06------
2019-07-06 11:00:00 23.2 10.3 15.6--- 4435.0wxwxwxwx3wx--31008.7 985.8 -1.5---------
2019-07-06 10:00:00 22.2 10.0 15.0--- 4630.0wxwxwxwxwx5wx--51009.6 986.6 -1.4---------
2019-07-06 09:00:00 21.7 10.2 14.9--- 4835.0wxwxwxwx5wx--51010.1 987.1 -1.1---------
2019-07-06 08:00:00 20.9 10.7 14.8--- 5230.0wxwxwxwxwx5wx--51010.4 987.3 -1.0---------
2019-07-06 07:00:00 18.3 11.6 14.1--- 6540.0wxwxwxwx3wx--31011.3 988.0 -0.7---------
2019-07-06 06:00:00 17.0 11.3 13.4 18.3 14.8 14 6930.0wxwxwx2wx--21011.6 988.2 -0.7--12wx-w1- 1.1
2019-07-06 05:00:00 16.4 11.5 13.2--- 7330.0wxwxwx1wx--11011.8 988.3 -0.8---------
2019-07-06 04:00:00 15.3 11.3 12.7--- 7740.0wxwxwx1wx--11012.3 988.7 -0.5---------
2019-07-06 03:00:00 15.1 11.1 12.5--- 7735.0wxwxwx1wx---1012.5 988.9 -0.6---wx-w1--
2019-07-06 02:00:00 15.1 10.9 12.4--- 7640.0wxwxwx1wx--11012.7 989.1 -0.4---------
2019-07-06 01:00:00 15.2 11.0 12.5--- 7645.0wxwxwx1wx--11012.8 989.2 -0.3---wx---
2019-07-06 00:00:00 15.1 10.9 12.4--- 7630.0wx-wx1wx--11013.1 989.5 0.0--6wx---
8.5 ms

 

Print Friendly, PDF & Email